sensor_id;sensor_type;location;lat;lon;timestamp;P1;durP1;ratioP1;P2;durP2;ratioP2
66751;SDS011;53663;42.676;23.238;2023-09-18T00:02:07;14.27;;;10.25;;
66751;SDS011;53663;42.676;23.238;2023-09-18T00:04:32;17.27;;;9.60;;
66751;SDS011;53663;42.676;23.238;2023-09-18T00:06:58;14.63;;;9.93;;
66751;SDS011;53663;42.676;23.238;2023-09-18T00:09:24;15.25;;;10.15;;
66751;SDS011;53663;42.676;23.238;2023-09-18T00:11:50;17.73;;;9.75;;
66751;SDS011;53663;42.676;23.238;2023-09-18T00:14:15;14.75;;;10.07;;
66751;SDS011;53663;42.676;23.238;2023-09-18T00:16:41;14.85;;;9.93;;
66751;SDS011;53663;42.676;23.238;2023-09-18T00:19:06;13.38;;;10.27;;
66751;SDS011;53663;42.676;23.238;2023-09-18T00:21:35;14.93;;;9.38;;
66751;SDS011;53663;42.676;23.238;2023-09-18T00:24:01;17.95;;;9.75;;
66751;SDS011;53663;42.676;23.238;2023-09-18T00:26:28;14.85;;;10.40;;
66751;SDS011;53663;42.676;23.238;2023-09-18T00:28:53;17.10;;;10.60;;
66751;SDS011;53663;42.676;23.238;2023-09-18T00:31:19;16.58;;;10.20;;
66751;SDS011;53663;42.676;23.238;2023-09-18T00:33:44;17.70;;;10.75;;
66751;SDS011;53663;42.676;23.238;2023-09-18T00:36:10;17.58;;;11.18;;
66751;SDS011;53663;42.676;23.238;2023-09-18T00:38:35;18.45;;;11.30;;
66751;SDS011;53663;42.676;23.238;2023-09-18T00:41:01;17.80;;;10.98;;
66751;SDS011;53663;42.676;23.238;2023-09-18T00:43:27;15.30;;;11.02;;
66751;SDS011;53663;42.676;23.238;2023-09-18T00:45:52;18.40;;;11.20;;
66751;SDS011;53663;42.676;23.238;2023-09-18T00:48:18;17.58;;;11.10;;
66751;SDS011;53663;42.676;23.238;2023-09-18T00:50:44;16.10;;;11.50;;
66751;SDS011;53663;42.676;23.238;2023-09-18T00:53:12;21.23;;;12.82;;
66751;SDS011;53663;42.676;23.238;2023-09-18T00:55:41;17.58;;;11.90;;
66751;SDS011;53663;42.676;23.238;2023-09-18T00:58:06;15.13;;;11.13;;
66751;SDS011;53663;42.676;23.238;2023-09-18T01:00:32;17.58;;;12.63;;
66751;SDS011;53663;42.676;23.238;2023-09-18T01:02:58;19.55;;;13.20;;
66751;SDS011;53663;42.676;23.238;2023-09-18T01:05:24;21.38;;;13.85;;
66751;SDS011;53663;42.676;23.238;2023-09-18T01:07:50;23.60;;;15.15;;
66751;SDS011;53663;42.676;23.238;2023-09-18T01:10:16;23.80;;;15.02;;
66751;SDS011;53663;42.676;23.238;2023-09-18T01:15:22;19.80;;;14.50;;
66751;SDS011;53663;42.676;23.238;2023-09-18T01:17:55;23.70;;;14.85;;
66751;SDS011;53663;42.676;23.238;2023-09-18T01:20:21;18.70;;;14.70;;
66751;SDS011;53663;42.676;23.238;2023-09-18T01:22:46;24.67;;;16.23;;
66751;SDS011;53663;42.676;23.238;2023-09-18T01:25:14;23.92;;;15.98;;
66751;SDS011;53663;42.676;23.238;2023-09-18T01:27:39;26.05;;;16.42;;
66751;SDS011;53663;42.676;23.238;2023-09-18T01:30:05;23.23;;;16.55;;
66751;SDS011;53663;42.676;23.238;2023-09-18T01:32:31;20.77;;;16.80;;
66751;SDS011;53663;42.676;23.238;2023-09-18T01:34:59;20.63;;;17.27;;
66751;SDS011;53663;42.676;23.238;2023-09-18T01:37:26;23.67;;;18.13;;
66751;SDS011;53663;42.676;23.238;2023-09-18T01:39:54;24.95;;;17.42;;
66751;SDS011;53663;42.676;23.238;2023-09-18T01:42:23;24.02;;;17.80;;
66751;SDS011;53663;42.676;23.238;2023-09-18T01:44:49;24.30;;;17.30;;
66751;SDS011;53663;42.676;23.238;2023-09-18T01:47:18;21.48;;;16.45;;
66751;SDS011;53663;42.676;23.238;2023-09-18T01:49:44;21.58;;;17.00;;
66751;SDS011;53663;42.676;23.238;2023-09-18T01:52:11;30.25;;;18.67;;
66751;SDS011;53663;42.676;23.238;2023-09-18T01:54:37;25.13;;;17.27;;
66751;SDS011;53663;42.676;23.238;2023-09-18T01:57:03;23.60;;;16.63;;
66751;SDS011;53663;42.676;23.238;2023-09-18T01:59:29;20.38;;;16.80;;
66751;SDS011;53663;42.676;23.238;2023-09-18T02:01:54;25.80;;;18.45;;
66751;SDS011;53663;42.676;23.238;2023-09-18T02:04:20;21.60;;;17.05;;
66751;SDS011;53663;42.676;23.238;2023-09-18T02:06:48;24.05;;;17.83;;
66751;SDS011;53663;42.676;23.238;2023-09-18T02:09:15;24.90;;;18.50;;
66751;SDS011;53663;42.676;23.238;2023-09-18T02:11:42;24.45;;;17.13;;
66751;SDS011;53663;42.676;23.238;2023-09-18T02:14:09;24.63;;;18.38;;
66751;SDS011;53663;42.676;23.238;2023-09-18T02:16:38;24.08;;;17.30;;
66751;SDS011;53663;42.676;23.238;2023-09-18T02:19:12;23.95;;;17.33;;
66751;SDS011;53663;42.676;23.238;2023-09-18T02:21:42;22.63;;;16.80;;
66751;SDS011;53663;42.676;23.238;2023-09-18T02:24:08;20.88;;;16.85;;
66751;SDS011;53663;42.676;23.238;2023-09-18T02:26:34;25.50;;;16.50;;
66751;SDS011;53663;42.676;23.238;2023-09-18T02:29:01;29.00;;;16.60;;
66751;SDS011;53663;42.676;23.238;2023-09-18T02:31:29;24.53;;;16.73;;
66751;SDS011;53663;42.676;23.238;2023-09-18T02:33:55;23.58;;;16.80;;
66751;SDS011;53663;42.676;23.238;2023-09-18T02:36:21;23.85;;;17.23;;
66751;SDS011;53663;42.676;23.238;2023-09-18T02:38:48;22.45;;;17.65;;
66751;SDS011;53663;42.676;23.238;2023-09-18T02:41:13;24.35;;;18.27;;
66751;SDS011;53663;42.676;23.238;2023-09-18T02:43:39;23.42;;;17.25;;
66751;SDS011;53663;42.676;23.238;2023-09-18T02:46:05;22.42;;;16.20;;
66751;SDS011;53663;42.676;23.238;2023-09-18T02:48:31;19.77;;;16.05;;
66751;SDS011;53663;42.676;23.238;2023-09-18T02:50:58;24.73;;;16.75;;
66751;SDS011;53663;42.676;23.238;2023-09-18T02:53:24;24.02;;;16.75;;
66751;SDS011;53663;42.676;23.238;2023-09-18T02:55:51;19.15;;;16.13;;
66751;SDS011;53663;42.676;23.238;2023-09-18T02:58:17;18.52;;;15.80;;
66751;SDS011;53663;42.676;23.238;2023-09-18T03:00:48;23.15;;;16.15;;
66751;SDS011;53663;42.676;23.238;2023-09-18T03:03:15;20.85;;;15.90;;
66751;SDS011;53663;42.676;23.238;2023-09-18T03:05:41;22.27;;;16.98;;
66751;SDS011;53663;42.676;23.238;2023-09-18T03:08:08;25.42;;;16.73;;
66751;SDS011;53663;42.676;23.238;2023-09-18T03:10:34;22.17;;;16.92;;
66751;SDS011;53663;42.676;23.238;2023-09-18T03:13:01;22.23;;;16.60;;
66751;SDS011;53663;42.676;23.238;2023-09-18T03:15:28;22.48;;;17.15;;
66751;SDS011;53663;42.676;23.238;2023-09-18T03:17:54;21.77;;;16.98;;
66751;SDS011;53663;42.676;23.238;2023-09-18T03:20:23;21.73;;;15.90;;
66751;SDS011;53663;42.676;23.238;2023-09-18T03:22:53;22.00;;;16.00;;
66751;SDS011;53663;42.676;23.238;2023-09-18T03:25:23;23.58;;;17.15;;
66751;SDS011;53663;42.676;23.238;2023-09-18T03:27:51;24.73;;;16.17;;
66751;SDS011;53663;42.676;23.238;2023-09-18T03:30:18;21.95;;;15.98;;
66751;SDS011;53663;42.676;23.238;2023-09-18T03:32:44;24.13;;;16.67;;
66751;SDS011;53663;42.676;23.238;2023-09-18T03:35:11;22.65;;;16.02;;
66751;SDS011;53663;42.676;23.238;2023-09-18T03:37:45;22.35;;;16.00;;
66751;SDS011;53663;42.676;23.238;2023-09-18T03:40:18;21.48;;;15.50;;
66751;SDS011;53663;42.676;23.238;2023-09-18T03:42:44;20.70;;;15.65;;
66751;SDS011;53663;42.676;23.238;2023-09-18T03:45:10;23.08;;;15.32;;
66751;SDS011;53663;42.676;23.238;2023-09-18T03:47:37;25.48;;;15.88;;
66751;SDS011;53663;42.676;23.238;2023-09-18T03:50:05;23.08;;;15.73;;
66751;SDS011;53663;42.676;23.238;2023-09-18T03:52:34;17.33;;;14.32;;
66751;SDS011;53663;42.676;23.238;2023-09-18T03:54:59;22.60;;;15.35;;
66751;SDS011;53663;42.676;23.238;2023-09-18T03:57:25;27.02;;;15.73;;
66751;SDS011;53663;42.676;23.238;2023-09-18T03:59:50;19.60;;;15.57;;
66751;SDS011;53663;42.676;23.238;2023-09-18T04:02:16;23.80;;;15.27;;
66751;SDS011;53663;42.676;23.238;2023-09-18T04:04:41;18.55;;;14.65;;
66751;SDS011;53663;42.676;23.238;2023-09-18T04:07:07;19.98;;;14.40;;
66751;SDS011;53663;42.676;23.238;2023-09-18T04:09:33;19.23;;;14.27;;
66751;SDS011;53663;42.676;23.238;2023-09-18T04:12:00;20.80;;;14.80;;
66751;SDS011;53663;42.676;23.238;2023-09-18T04:14:26;26.35;;;15.27;;
66751;SDS011;53663;42.676;23.238;2023-09-18T04:16:51;21.98;;;14.27;;
66751;SDS011;53663;42.676;23.238;2023-09-18T04:19:17;22.50;;;14.93;;
66751;SDS011;53663;42.676;23.238;2023-09-18T04:21:43;24.55;;;14.23;;
66751;SDS011;53663;42.676;23.238;2023-09-18T04:24:09;19.75;;;14.38;;
66751;SDS011;53663;42.676;23.238;2023-09-18T04:26:34;23.63;;;14.82;;
66751;SDS011;53663;42.676;23.238;2023-09-18T04:29:00;23.52;;;16.50;;
66751;SDS011;53663;42.676;23.238;2023-09-18T04:31:27;21.70;;;14.98;;
66751;SDS011;53663;42.676;23.238;2023-09-18T04:33:53;20.27;;;15.70;;
66751;SDS011;53663;42.676;23.238;2023-09-18T04:36:19;26.77;;;15.95;;
66751;SDS011;53663;42.676;23.238;2023-09-18T04:38:45;22.38;;;16.13;;
66751;SDS011;53663;42.676;23.238;2023-09-18T04:41:10;22.33;;;16.45;;
66751;SDS011;53663;42.676;23.238;2023-09-18T04:43:37;24.95;;;15.63;;
66751;SDS011;53663;42.676;23.238;2023-09-18T04:46:05;21.27;;;15.68;;
66751;SDS011;53663;42.676;23.238;2023-09-18T04:48:32;19.67;;;15.40;;
66751;SDS011;53663;42.676;23.238;2023-09-18T04:50:58;24.20;;;15.80;;
66751;SDS011;53663;42.676;23.238;2023-09-18T04:53:26;31.52;;;15.98;;
66751;SDS011;53663;42.676;23.238;2023-09-18T04:55:52;23.42;;;16.35;;
66751;SDS011;53663;42.676;23.238;2023-09-18T04:58:18;26.17;;;16.63;;
66751;SDS011;53663;42.676;23.238;2023-09-18T05:00:44;24.08;;;17.58;;
66751;SDS011;53663;42.676;23.238;2023-09-18T05:03:10;26.55;;;16.95;;
66751;SDS011;53663;42.676;23.238;2023-09-18T05:05:36;24.17;;;16.63;;
66751;SDS011;53663;42.676;23.238;2023-09-18T05:08:02;33.42;;;16.95;;
66751;SDS011;53663;42.676;23.238;2023-09-18T05:10:32;20.00;;;16.08;;
66751;SDS011;53663;42.676;23.238;2023-09-18T05:12:59;25.05;;;16.58;;
66751;SDS011;53663;42.676;23.238;2023-09-18T05:15:25;27.52;;;16.95;;
66751;SDS011;53663;42.676;23.238;2023-09-18T05:17:51;28.15;;;16.55;;
66751;SDS011;53663;42.676;23.238;2023-09-18T05:20:20;27.00;;;16.77;;
66751;SDS011;53663;42.676;23.238;2023-09-18T05:22:49;27.15;;;17.35;;
66751;SDS011;53663;42.676;23.238;2023-09-18T05:25:15;25.23;;;16.80;;
66751;SDS011;53663;42.676;23.238;2023-09-18T05:27:41;22.20;;;16.38;;
66751;SDS011;53663;42.676;23.238;2023-09-18T05:30:19;32.78;;;15.00;;
66751;SDS011;53663;42.676;23.238;2023-09-18T05:32:48;25.77;;;15.32;;
66751;SDS011;53663;42.676;23.238;2023-09-18T05:35:14;25.05;;;15.27;;
66751;SDS011;53663;42.676;23.238;2023-09-18T05:37:42;26.23;;;15.18;;
66751;SDS011;53663;42.676;23.238;2023-09-18T05:40:09;23.67;;;15.68;;
66751;SDS011;53663;42.676;23.238;2023-09-18T05:42:36;21.35;;;15.65;;
66751;SDS011;53663;42.676;23.238;2023-09-18T05:45:03;28.80;;;18.00;;
66751;SDS011;53663;42.676;23.238;2023-09-18T05:47:30;36.35;;;17.35;;
66751;SDS011;53663;42.676;23.238;2023-09-18T05:49:57;25.40;;;16.95;;
66751;SDS011;53663;42.676;23.238;2023-09-18T05:52:23;24.63;;;16.92;;
66751;SDS011;53663;42.676;23.238;2023-09-18T05:54:49;32.78;;;18.25;;
66751;SDS011;53663;42.676;23.238;2023-09-18T05:57:15;22.35;;;17.83;;
66751;SDS011;53663;42.676;23.238;2023-09-18T05:59:41;25.05;;;18.05;;
66751;SDS011;53663;42.676;23.238;2023-09-18T06:02:10;25.05;;;18.00;;
66751;SDS011;53663;42.676;23.238;2023-09-18T06:04:36;29.20;;;18.75;;
66751;SDS011;53663;42.676;23.238;2023-09-18T06:07:05;25.42;;;17.80;;
66751;SDS011;53663;42.676;23.238;2023-09-18T06:09:30;29.08;;;18.63;;
66751;SDS011;53663;42.676;23.238;2023-09-18T06:11:56;27.33;;;19.50;;
66751;SDS011;53663;42.676;23.238;2023-09-18T06:14:22;27.17;;;19.65;;
66751;SDS011;53663;42.676;23.238;2023-09-18T06:16:47;28.13;;;18.83;;
66751;SDS011;53663;42.676;23.238;2023-09-18T06:19:13;31.02;;;18.83;;
66751;SDS011;53663;42.676;23.238;2023-09-18T06:21:40;24.75;;;18.92;;
66751;SDS011;53663;42.676;23.238;2023-09-18T06:24:05;30.75;;;18.73;;
66751;SDS011;53663;42.676;23.238;2023-09-18T06:26:31;31.42;;;18.88;;
66751;SDS011;53663;42.676;23.238;2023-09-18T06:28:57;31.88;;;20.42;;
66751;SDS011;53663;42.676;23.238;2023-09-18T06:31:22;26.92;;;20.23;;
66751;SDS011;53663;42.676;23.238;2023-09-18T06:33:48;28.55;;;20.75;;
66751;SDS011;53663;42.676;23.238;2023-09-18T06:36:14;34.97;;;20.60;;
66751;SDS011;53663;42.676;23.238;2023-09-18T06:38:39;31.95;;;19.33;;
66751;SDS011;53663;42.676;23.238;2023-09-18T06:41:05;27.85;;;19.23;;
66751;SDS011;53663;42.676;23.238;2023-09-18T06:43:30;31.58;;;18.35;;
66751;SDS011;53663;42.676;23.238;2023-09-18T06:45:56;24.38;;;18.35;;
66751;SDS011;53663;42.676;23.238;2023-09-18T06:48:23;26.60;;;18.17;;
66751;SDS011;53663;42.676;23.238;2023-09-18T06:50:49;27.23;;;18.50;;
66751;SDS011;53663;42.676;23.238;2023-09-18T06:53:15;22.70;;;17.77;;
66751;SDS011;53663;42.676;23.238;2023-09-18T06:55:40;21.98;;;15.88;;
66751;SDS011;53663;42.676;23.238;2023-09-18T06:58:06;24.58;;;16.30;;
66751;SDS011;53663;42.676;23.238;2023-09-18T07:00:31;25.58;;;17.35;;
66751;SDS011;53663;42.676;23.238;2023-09-18T07:02:57;20.58;;;16.38;;
66751;SDS011;53663;42.676;23.238;2023-09-18T07:05:22;27.10;;;16.20;;
66751;SDS011;53663;42.676;23.238;2023-09-18T07:07:48;24.58;;;16.00;;
66751;SDS011;53663;42.676;23.238;2023-09-18T07:10:13;24.92;;;15.85;;
66751;SDS011;53663;42.676;23.238;2023-09-18T07:12:39;24.70;;;16.33;;
66751;SDS011;53663;42.676;23.238;2023-09-18T07:15:05;29.50;;;19.90;;
66751;SDS011;53663;42.676;23.238;2023-09-18T07:17:31;25.85;;;16.65;;
66751;SDS011;53663;42.676;23.238;2023-09-18T07:19:57;22.13;;;15.25;;
66751;SDS011;53663;42.676;23.238;2023-09-18T07:22:23;26.98;;;15.95;;
66751;SDS011;53663;42.676;23.238;2023-09-18T07:24:48;21.40;;;16.05;;
66751;SDS011;53663;42.676;23.238;2023-09-18T07:27:14;20.85;;;15.13;;
66751;SDS011;53663;42.676;23.238;2023-09-18T07:29:40;19.95;;;14.85;;
66751;SDS011;53663;42.676;23.238;2023-09-18T07:32:05;21.80;;;13.77;;
66751;SDS011;53663;42.676;23.238;2023-09-18T07:34:31;22.38;;;14.32;;
66751;SDS011;53663;42.676;23.238;2023-09-18T07:36:57;19.42;;;14.00;;
66751;SDS011;53663;42.676;23.238;2023-09-18T07:39:22;20.80;;;13.77;;
66751;SDS011;53663;42.676;23.238;2023-09-18T07:41:48;29.73;;;14.00;;
66751;SDS011;53663;42.676;23.238;2023-09-18T07:44:18;18.33;;;13.10;;
66751;SDS011;53663;42.676;23.238;2023-09-18T07:46:46;18.20;;;12.75;;
66751;SDS011;53663;42.676;23.238;2023-09-18T07:49:11;15.68;;;12.55;;
66751;SDS011;53663;42.676;23.238;2023-09-18T07:51:37;18.02;;;11.68;;
66751;SDS011;53663;42.676;23.238;2023-09-18T07:54:03;17.52;;;12.43;;
66751;SDS011;53663;42.676;23.238;2023-09-18T07:56:28;20.20;;;12.52;;
66751;SDS011;53663;42.676;23.238;2023-09-18T07:58:58;16.63;;;12.27;;
66751;SDS011;53663;42.676;23.238;2023-09-18T08:01:24;16.48;;;12.05;;
66751;SDS011;53663;42.676;23.238;2023-09-18T08:03:50;52.20;;;33.15;;
66751;SDS011;53663;42.676;23.238;2023-09-18T08:06:15;14.35;;;11.10;;
66751;SDS011;53663;42.676;23.238;2023-09-18T08:08:43;13.90;;;10.88;;
66751;SDS011;53663;42.676;23.238;2023-09-18T08:11:09;12.20;;;10.75;;
66751;SDS011;53663;42.676;23.238;2023-09-18T08:13:34;17.95;;;12.32;;
66751;SDS011;53663;42.676;23.238;2023-09-18T08:16:00;15.82;;;11.00;;
66751;SDS011;53663;42.676;23.238;2023-09-18T08:18:26;30.45;;;21.92;;
66751;SDS011;53663;42.676;23.238;2023-09-18T08:20:52;13.23;;;11.05;;
66751;SDS011;53663;42.676;23.238;2023-09-18T08:23:19;15.88;;;10.77;;
66751;SDS011;53663;42.676;23.238;2023-09-18T08:25:45;15.75;;;10.85;;
66751;SDS011;53663;42.676;23.238;2023-09-18T08:28:12;12.82;;;10.50;;
66751;SDS011;53663;42.676;23.238;2023-09-18T08:30:40;14.73;;;11.63;;
66751;SDS011;53663;42.676;23.238;2023-09-18T08:33:05;16.35;;;12.15;;
66751;SDS011;53663;42.676;23.238;2023-09-18T08:35:31;15.55;;;9.82;;
66751;SDS011;53663;42.676;23.238;2023-09-18T08:37:57;18.23;;;12.68;;
66751;SDS011;53663;42.676;23.238;2023-09-18T08:40:23;14.32;;;12.23;;
66751;SDS011;53663;42.676;23.238;2023-09-18T08:42:49;15.15;;;10.82;;
66751;SDS011;53663;42.676;23.238;2023-09-18T08:45:29;15.23;;;13.43;;
66751;SDS011;53663;42.676;23.238;2023-09-18T08:48:00;12.38;;;11.02;;
66751;SDS011;53663;42.676;23.238;2023-09-18T08:50:27;14.65;;;10.77;;
66751;SDS011;53663;42.676;23.238;2023-09-18T08:52:54;16.23;;;10.85;;
66751;SDS011;53663;42.676;23.238;2023-09-18T08:55:20;14.05;;;10.40;;
66751;SDS011;53663;42.676;23.238;2023-09-18T08:57:46;12.00;;;10.43;;
66751;SDS011;53663;42.676;23.238;2023-09-18T09:00:12;15.05;;;10.60;;
66751;SDS011;53663;42.676;23.238;2023-09-18T09:02:41;16.23;;;11.17;;
66751;SDS011;53663;42.676;23.238;2023-09-18T09:05:08;16.25;;;10.65;;
66751;SDS011;53663;42.676;23.238;2023-09-18T09:07:34;20.95;;;14.88;;
66751;SDS011;53663;42.676;23.238;2023-09-18T09:09:59;18.55;;;13.70;;
66751;SDS011;53663;42.676;23.238;2023-09-18T09:15:13;17.08;;;12.13;;
66751;SDS011;53663;42.676;23.238;2023-09-18T09:17:40;15.00;;;10.48;;
66751;SDS011;53663;42.676;23.238;2023-09-18T09:20:10;16.58;;;10.10;;
66751;SDS011;53663;42.676;23.238;2023-09-18T09:22:40;14.10;;;10.43;;
66751;SDS011;53663;42.676;23.238;2023-09-18T09:27:49;15.88;;;10.30;;
66751;SDS011;53663;42.676;23.238;2023-09-18T09:30:18;18.60;;;10.20;;
66751;SDS011;53663;42.676;23.238;2023-09-18T09:32:47;15.68;;;9.57;;
66751;SDS011;53663;42.676;23.238;2023-09-18T09:35:34;13.27;;;9.75;;
66751;SDS011;53663;42.676;23.238;2023-09-18T09:38:10;12.48;;;8.95;;
66751;SDS011;53663;42.676;23.238;2023-09-18T09:40:40;16.20;;;8.75;;
66751;SDS011;53663;42.676;23.238;2023-09-18T09:43:07;13.97;;;8.63;;
66751;SDS011;53663;42.676;23.238;2023-09-18T09:45:34;13.52;;;7.78;;
66751;SDS011;53663;42.676;23.238;2023-09-18T09:48:01;10.93;;;7.97;;
66751;SDS011;53663;42.676;23.238;2023-09-18T09:50:29;9.85;;;6.40;;
66751;SDS011;53663;42.676;23.238;2023-09-18T09:52:55;10.13;;;6.70;;
66751;SDS011;53663;42.676;23.238;2023-09-18T09:55:33;12.48;;;7.20;;
66751;SDS011;53663;42.676;23.238;2023-09-18T09:58:00;13.40;;;8.48;;
66751;SDS011;53663;42.676;23.238;2023-09-18T10:00:38;11.05;;;7.60;;
66751;SDS011;53663;42.676;23.238;2023-09-18T10:03:14;9.32;;;6.90;;
66751;SDS011;53663;42.676;23.238;2023-09-18T10:05:43;12.82;;;7.90;;
66751;SDS011;53663;42.676;23.238;2023-09-18T10:08:14;12.75;;;8.10;;
66751;SDS011;53663;42.676;23.238;2023-09-18T10:10:43;10.60;;;7.47;;
66751;SDS011;53663;42.676;23.238;2023-09-18T10:15:46;10.60;;;7.70;;
66751;SDS011;53663;42.676;23.238;2023-09-18T10:18:59;12.88;;;7.43;;
66751;SDS011;53663;42.676;23.238;2023-09-18T10:21:27;11.80;;;7.22;;
66751;SDS011;53663;42.676;23.238;2023-09-18T10:24:12;9.82;;;7.15;;
66751;SDS011;53663;42.676;23.238;2023-09-18T10:26:48;11.20;;;7.20;;
66751;SDS011;53663;42.676;23.238;2023-09-18T10:29:20;15.80;;;8.00;;
66751;SDS011;53663;42.676;23.238;2023-09-18T10:31:48;11.60;;;6.95;;
66751;SDS011;53663;42.676;23.238;2023-09-18T10:34:15;9.02;;;6.30;;
66751;SDS011;53663;42.676;23.238;2023-09-18T10:36:42;14.13;;;7.85;;
66751;SDS011;53663;42.676;23.238;2023-09-18T10:39:09;11.18;;;7.43;;
66751;SDS011;53663;42.676;23.238;2023-09-18T10:41:37;15.80;;;7.70;;
66751;SDS011;53663;42.676;23.238;2023-09-18T10:44:04;13.43;;;7.35;;
66751;SDS011;53663;42.676;23.238;2023-09-18T10:46:30;10.52;;;7.05;;
66751;SDS011;53663;42.676;23.238;2023-09-18T10:48:58;11.68;;;7.47;;
66751;SDS011;53663;42.676;23.238;2023-09-18T10:51:28;9.43;;;6.40;;
66751;SDS011;53663;42.676;23.238;2023-09-18T10:53:56;10.25;;;6.47;;
66751;SDS011;53663;42.676;23.238;2023-09-18T10:56:22;10.15;;;6.25;;
66751;SDS011;53663;42.676;23.238;2023-09-18T10:58:55;9.10;;;6.78;;
66751;SDS011;53663;42.676;23.238;2023-09-18T11:01:23;12.63;;;7.35;;
66751;SDS011;53663;42.676;23.238;2023-09-18T11:03:52;10.05;;;6.95;;
66751;SDS011;53663;42.676;23.238;2023-09-18T11:06:18;7.65;;;6.00;;
66751;SDS011;53663;42.676;23.238;2023-09-18T11:08:47;10.63;;;6.57;;
66751;SDS011;53663;42.676;23.238;2023-09-18T11:11:17;8.73;;;6.00;;
66751;SDS011;53663;42.676;23.238;2023-09-18T11:13:50;8.45;;;5.85;;
66751;SDS011;53663;42.676;23.238;2023-09-18T11:18:54;7.88;;;5.43;;
66751;SDS011;53663;42.676;23.238;2023-09-18T11:21:33;9.52;;;5.65;;
66751;SDS011;53663;42.676;23.238;2023-09-18T11:26:37;8.07;;;5.15;;
66751;SDS011;53663;42.676;23.238;2023-09-18T11:31:44;7.57;;;4.88;;
66751;SDS011;53663;42.676;23.238;2023-09-18T11:34:15;8.80;;;4.60;;
66751;SDS011;53663;42.676;23.238;2023-09-18T11:36:41;10.43;;;4.95;;
66751;SDS011;53663;42.676;23.238;2023-09-18T11:39:07;7.85;;;5.25;;
66751;SDS011;53663;42.676;23.238;2023-09-18T11:41:34;14.40;;;4.93;;
66751;SDS011;53663;42.676;23.238;2023-09-18T11:46:39;7.72;;;5.05;;
66751;SDS011;53663;42.676;23.238;2023-09-18T11:49:08;8.25;;;4.75;;
66751;SDS011;53663;42.676;23.238;2023-09-18T11:51:36;8.20;;;5.10;;
66751;SDS011;53663;42.676;23.238;2023-09-18T11:54:02;6.15;;;4.75;;
66751;SDS011;53663;42.676;23.238;2023-09-18T11:56:30;6.93;;;4.63;;
66751;SDS011;53663;42.676;23.238;2023-09-18T11:58:57;11.13;;;4.70;;
66751;SDS011;53663;42.676;23.238;2023-09-18T12:01:24;8.68;;;5.10;;
66751;SDS011;53663;42.676;23.238;2023-09-18T12:03:53;12.75;;;4.63;;
66751;SDS011;53663;42.676;23.238;2023-09-18T12:06:20;8.45;;;4.78;;
66751;SDS011;53663;42.676;23.238;2023-09-18T12:08:46;7.72;;;4.53;;
66751;SDS011;53663;42.676;23.238;2023-09-18T12:11:12;10.30;;;4.63;;
66751;SDS011;53663;42.676;23.238;2023-09-18T12:13:42;6.18;;;4.50;;
66751;SDS011;53663;42.676;23.238;2023-09-18T12:16:08;14.45;;;4.88;;
66751;SDS011;53663;42.676;23.238;2023-09-18T12:18:34;9.05;;;4.50;;
66751;SDS011;53663;42.676;23.238;2023-09-18T12:21:05;6.30;;;4.43;;
66751;SDS011;53663;42.676;23.238;2023-09-18T12:23:38;8.18;;;4.00;;
66751;SDS011;53663;42.676;23.238;2023-09-18T12:26:04;6.25;;;4.18;;
66751;SDS011;53663;42.676;23.238;2023-09-18T12:28:35;11.05;;;4.53;;
66751;SDS011;53663;42.676;23.238;2023-09-18T12:31:02;9.77;;;4.63;;
66751;SDS011;53663;42.676;23.238;2023-09-18T12:33:35;7.68;;;4.45;;
66751;SDS011;53663;42.676;23.238;2023-09-18T12:36:02;10.20;;;4.50;;
66751;SDS011;53663;42.676;23.238;2023-09-18T12:38:29;10.35;;;4.57;;
66751;SDS011;53663;42.676;23.238;2023-09-18T12:40:55;11.93;;;4.68;;
66751;SDS011;53663;42.676;23.238;2023-09-18T12:43:21;11.68;;;5.13;;
66751;SDS011;53663;42.676;23.238;2023-09-18T12:45:48;12.98;;;5.07;;
66751;SDS011;53663;42.676;23.238;2023-09-18T12:48:14;8.98;;;5.10;;
66751;SDS011;53663;42.676;23.238;2023-09-18T12:50:40;9.20;;;4.80;;
66751;SDS011;53663;42.676;23.238;2023-09-18T12:53:07;9.45;;;4.80;;
66751;SDS011;53663;42.676;23.238;2023-09-18T12:55:33;11.77;;;5.20;;
66751;SDS011;53663;42.676;23.238;2023-09-18T12:57:59;13.13;;;5.22;;
66751;SDS011;53663;42.676;23.238;2023-09-18T13:00:30;8.32;;;4.85;;
66751;SDS011;53663;42.676;23.238;2023-09-18T13:02:56;7.07;;;4.80;;
66751;SDS011;53663;42.676;23.238;2023-09-18T13:05:22;8.52;;;4.65;;
66751;SDS011;53663;42.676;23.238;2023-09-18T13:07:52;7.25;;;4.70;;
66751;SDS011;53663;42.676;23.238;2023-09-18T13:10:19;9.15;;;4.55;;
66751;SDS011;53663;42.676;23.238;2023-09-18T13:12:50;7.30;;;4.70;;
66751;SDS011;53663;42.676;23.238;2023-09-18T13:15:29;9.90;;;4.30;;
66751;SDS011;53663;42.676;23.238;2023-09-18T13:17:55;8.38;;;4.70;;
66751;SDS011;53663;42.676;23.238;2023-09-18T13:20:22;7.32;;;4.30;;
66751;SDS011;53663;42.676;23.238;2023-09-18T13:22:51;7.85;;;4.35;;
66751;SDS011;53663;42.676;23.238;2023-09-18T13:25:25;10.70;;;4.32;;
66751;SDS011;53663;42.676;23.238;2023-09-18T13:27:53;11.25;;;4.45;;
66751;SDS011;53663;42.676;23.238;2023-09-18T13:30:20;7.82;;;4.57;;
66751;SDS011;53663;42.676;23.238;2023-09-18T13:32:47;12.43;;;5.05;;
66751;SDS011;53663;42.676;23.238;2023-09-18T13:35:16;7.82;;;4.32;;
66751;SDS011;53663;42.676;23.238;2023-09-18T13:37:43;7.25;;;4.78;;
66751;SDS011;53663;42.676;23.238;2023-09-18T13:40:09;13.45;;;4.47;;
66751;SDS011;53663;42.676;23.238;2023-09-18T13:42:36;8.77;;;4.30;;
66751;SDS011;53663;42.676;23.238;2023-09-18T13:45:03;12.27;;;4.78;;
66751;SDS011;53663;42.676;23.238;2023-09-18T13:47:31;11.57;;;4.47;;
66751;SDS011;53663;42.676;23.238;2023-09-18T13:49:57;6.82;;;4.53;;
66751;SDS011;53663;42.676;23.238;2023-09-18T13:52:28;7.53;;;4.15;;
66751;SDS011;53663;42.676;23.238;2023-09-18T13:54:54;6.57;;;4.60;;
66751;SDS011;53663;42.676;23.238;2023-09-18T13:57:20;7.40;;;4.57;;
66751;SDS011;53663;42.676;23.238;2023-09-18T13:59:46;7.07;;;4.15;;
66751;SDS011;53663;42.676;23.238;2023-09-18T14:02:13;11.02;;;4.70;;
66751;SDS011;53663;42.676;23.238;2023-09-18T14:04:39;7.82;;;4.50;;
66751;SDS011;53663;42.676;23.238;2023-09-18T14:07:05;7.97;;;4.65;;
66751;SDS011;53663;42.676;23.238;2023-09-18T14:09:31;7.75;;;4.70;;
66751;SDS011;53663;42.676;23.238;2023-09-18T14:11:57;13.95;;;4.70;;
66751;SDS011;53663;42.676;23.238;2023-09-18T14:14:22;16.95;;;4.43;;
66751;SDS011;53663;42.676;23.238;2023-09-18T14:16:48;9.95;;;4.72;;
66751;SDS011;53663;42.676;23.238;2023-09-18T14:19:15;8.10;;;4.72;;
66751;SDS011;53663;42.676;23.238;2023-09-18T14:21:41;5.38;;;4.25;;
66751;SDS011;53663;42.676;23.238;2023-09-18T14:24:08;7.70;;;4.13;;
66751;SDS011;53663;42.676;23.238;2023-09-18T14:26:33;8.95;;;4.43;;
66751;SDS011;53663;42.676;23.238;2023-09-18T14:29:06;6.68;;;4.13;;
66751;SDS011;53663;42.676;23.238;2023-09-18T14:31:37;8.43;;;4.25;;
66751;SDS011;53663;42.676;23.238;2023-09-18T14:34:03;7.68;;;4.20;;
66751;SDS011;53663;42.676;23.238;2023-09-18T14:36:32;8.80;;;4.28;;
66751;SDS011;53663;42.676;23.238;2023-09-18T14:39:01;13.88;;;5.70;;